logo dgac
Miércoles 14 de Noviembre del 2018
Buscar por aerodromo o helipuerto
Ingrese nombre de aeródromo, localidad o designador OACI:

Aeródromo: Cochrane (PUB) (SCHR)

Ubicación: Cochrane, XI Región, Chile (47º 14' 37'' S, 72º 35' 16'' W) Ver ubicación en el mapa

Pistas

Orientación Dimensión Pendiente Superficie Resistencia APCH THR RWY PAPI
07/25 1050 x 23 2,00 ASPH /CONCRETO 23.000 Kg No No No No
Horas de operación HJ
Elevación 196 m / 643 ft
Otra Información Adm : D.G.A.C.
Uso : PUB
Ubicado : 3 km NW Cochrane
TEL (FAX) 67 2522121

Al FCCV restar 30 minutos

Otra información ver AIP-Chile Volumen I AD 3.9-3.10-C
CCCM/FCCV Descargar
andera de Chile
Mapa de Cochrane (PUB) (SCHR)

Último METAR

METAR SCHR 142000Z 22015G32KT 190V260 6000 SHRA OVC025 08/02 Q0997

Último TAF

TAF SCHR 141028Z 1412/1500 20005KT 9999 SCT065 TN08/1500Z TX14/1416Z BECMG 1416/1418 9000 -SHRA BKN050 TEMPO 1416/1420 7000 SHRA BKN027 BECMG 1419/1421 20015G25KT

Últimas fotos cámaras

Imagen aerodromo Cochrane (PUB) (SCHR) Este tomada el 14-11-2018 05:38:06 Imagen aerodromo Cochrane (PUB) (SCHR) Oeste tomada el 14-11-2018 05:38:33

Último NOTAM

No hay notams registrados para este aeródromo

LLegadas a Cochrane (PUB) (SCHR)

En vuelo

Vuelo Procedencia Hora Despegue Local Hora Arribo Local

Salidas de Cochrane (PUB) (SCHR)

En vuelo

Vuelo Hacia Hora Despegue Local Hora Arribo Local